»·PEaware :: JAL12 RJAA-KDFW

JAL12 :: RJAA-KDFW

FLIGHT INFORMATION

Flight Status: Arrived
Operator:
Japan Airlines
More flights by this operator :: More flights under this callsign
Pilot: Drew L. (13237)
Aircraft: Boeing 787-9 Dreamliner
(B789)
More flights by this aircraft type
Origin: RJAA New Tokyo Intl (Narita)
Japan
Destination: KDFW Dallas-Ft Worth Intl
United States
More flights between these airports :: More routes between these airports
Route: CUPID3 CUPID Y808 ONION OTR5 ADNAP R591 ASPIN 56E77 60N66/N0502F390 ENA 60N40 BONAS IMUKU/N0492F410 YMJ ISN DPR TDD ICT PER IBAKE VKTRY2
File this flight plan on PilotEdge
Remarks: PBN / A1B1C1D1L1O1S2 DOF / 180524 REG / N899SB EET / PAZA0214 RJJJ0215 CZEG0628 PAZA0645 CZEG0646 PAZA0653 CZWG0845 KZLC0923 KZMP0938 KZDV1000 KZMP1003 KZDV1008 KZKC1043 KZFW1115 OPR / JAL PER / D RALT / RJEC RMK / TCAS SIMBRIEF
Altitude:
(Current/Filed)
37,000ft
Speed:
(Current/Filed)
497kts
Departed: 23-May-18 08:52 PM
Arrived: 24-May-18 10:19 AM
Distance/Time
Traveled:
5570nm/13:27
Distance/Time
To Go:
Arrived

Flight Plot

Page will automatically refresh every two minutes.

Flight plan parsing failed; only flown route is shown


Map Options




Map Legend


Flown Route
Filed Route
Departure Airport
Arrival Airport
Navaid (VOR, NDB)
Fix

Horizontal Profiles

Position Reports

Time Latitude Longitude Heading Altitude Ground
Speed
23-May-18 20:16 35.744400 140.389921 329 148ft 0kts
23-May-18 20:17 35.744400 140.389921 329 148ft 0kts
23-May-18 20:18 35.744400 140.389921 329 148ft 0kts
23-May-18 20:19 35.744400 140.389921 329 148ft 0kts
23-May-18 20:20 35.744400 140.389921 329 148ft 0kts
23-May-18 20:21 35.744400 140.389921 329 148ft 0kts
23-May-18 20:22 35.744400 140.389921 329 148ft 0kts
23-May-18 20:23 35.744400 140.389921 329 148ft 0kts
23-May-18 20:24 35.744400 140.389921 329 148ft 0kts
23-May-18 20:25 35.744400 140.389921 329 148ft 0kts
23-May-18 20:26 35.744400 140.389921 329 148ft 0kts
23-May-18 20:27 35.744400 140.389921 329 148ft 0kts
23-May-18 20:28 35.744400 140.389921 329 148ft 0kts
23-May-18 20:29 35.744400 140.389921 329 148ft 0kts
23-May-18 20:30 35.744400 140.389921 329 148ft 0kts
23-May-18 20:31 35.744400 140.389921 329 148ft 0kts
23-May-18 20:32 35.744400 140.389921 329 148ft 0kts
23-May-18 20:33 35.744400 140.389921 329 148ft 0kts
23-May-18 20:34 35.744400 140.389921 329 148ft 0kts
23-May-18 20:35 35.744400 140.389921 329 148ft 0kts
23-May-18 20:36 35.744400 140.389921 329 148ft 0kts
23-May-18 20:37 35.744400 140.389921 329 148ft 0kts
23-May-18 20:38 35.744400 140.389921 329 148ft 0kts
23-May-18 20:39 35.744400 140.389921 329 148ft 0kts
23-May-18 20:40 35.744400 140.389921 329 148ft 0kts
23-May-18 20:41 35.744400 140.389921 329 148ft 0kts
23-May-18 20:42 35.744400 140.389921 329 148ft 0kts
23-May-18 20:43 35.744400 140.389921 329 148ft 0kts
23-May-18 20:44 35.744400 140.389921 329 148ft 0kts
23-May-18 20:45 35.744400 140.389921 329 148ft 0kts
23-May-18 20:46 35.744400 140.389921 329 148ft 0kts
23-May-18 20:47 35.744401 140.389920 329 148ft 0kts
23-May-18 20:48 35.744410 140.389914 329 148ft 0kts
23-May-18 20:49 35.744471 140.389870 329 148ft 0kts
23-May-18 20:50 35.744474 140.389868 329 148ft 0kts
23-May-18 20:51 35.744513 140.389840 329 148ft 8kts
23-May-18 20:52 35.772322 140.369675 330 656ft 183kts
23-May-18 20:53 35.819777 140.365175 50 3760ft 226kts
23-May-18 20:54 35.807734 140.443525 121 6888ft 281kts
23-May-18 20:55 35.770659 140.535502 114 9943ft 314kts
23-May-18 20:56 35.730794 140.644626 115 11611ft 386kts
23-May-18 20:57 35.684419 140.771466 116 14029ft 418kts
23-May-18 20:58 35.635427 140.904747 117 16439ft 437kts
23-May-18 20:59 35.584087 141.043970 119 18570ft 455kts
23-May-18 21:00 35.530768 141.187761 120 20448ft 470kts
23-May-18 21:01 35.475528 141.336130 121 22159ft 484kts
23-May-18 21:02 35.418289 141.489105 122 23675ft 500kts
23-May-18 21:03 35.359390 141.645746 123 25135ft 513kts
23-May-18 21:04 35.298841 141.805959 123 26559ft 525kts
23-May-18 21:05 35.236281 141.970737 123 27936ft 539kts
23-May-18 21:06 35.178821 142.141741 111 29695ft 556kts
23-May-18 21:07 35.171515 142.336200 86 30801ft 593kts
23-May-18 21:08 35.182155 142.533493 91 33057ft 577kts
23-May-18 21:09 35.192068 142.730182 90 34685ft 575kts
23-May-18 21:10 35.257116 142.906432 40 35728ft 584kts
23-May-18 21:11 35.378166 143.033999 27 36976ft 572kts
23-May-18 21:12 35.517194 143.127671 22 36993ft 570kts
23-May-18 21:13 35.655115 143.224963 22 37001ft 571kts
23-May-18 21:14 35.793054 143.321602 22 36995ft 571kts
23-May-18 21:15 35.931347 143.419067 22 36991ft 571kts
23-May-18 21:16 36.069294 143.516594 22 36996ft 573kts
23-May-18 21:17 36.207568 143.614823 22 37004ft 574kts
23-May-18 21:18 36.346474 143.713824 22 36997ft 575kts
23-May-18 21:19 36.484886 143.812958 22 36989ft 575kts
23-May-18 21:20 36.623301 143.912398 22 36995ft 575kts
23-May-18 21:21 36.762238 144.012608 22 36999ft 576kts
23-May-18 21:22 36.900857 144.112950 22 36700ft 577kts
23-May-18 21:23 37.019510 144.246631 60 36702ft 590kts
23-May-18 21:24 37.057340 144.445698 90 36714ft 596kts
23-May-18 21:25 37.081920 144.650218 84 36693ft 595kts
23-May-18 21:26 37.105597 144.855693 85 36696ft 594kts
23-May-18 21:27 37.129493 145.060977 85 36711ft 594kts
23-May-18 21:28 37.152868 145.265598 85 36703ft 594kts
23-May-18 21:29 37.175874 145.470180 85 36697ft 593kts
23-May-18 21:30 37.226235 145.664603 53 36728ft 592kts
23-May-18 21:31 37.331318 145.823235 34 36707ft 593kts
23-May-18 21:32 37.453429 145.961663 38 36733ft 592kts
23-May-18 21:33 37.574292 146.103081 37 36733ft 591kts
23-May-18 21:34 37.694428 146.244588 37 36726ft 592kts
23-May-18 21:35 37.814693 146.386726 37 36730ft 593kts
23-May-18 21:36 37.935024 146.529710 37 36740ft 592kts
23-May-18 21:37 38.054662 146.672453 38 36707ft 592kts
23-May-18 21:38 38.174691 146.816414 38 36715ft 592kts
23-May-18 21:39 38.294121 146.960294 39 36713ft 592kts
23-May-18 21:40 38.413300 147.104517 38 36677ft 591kts
23-May-18 21:41 38.532442 147.249491 39 36684ft 590kts
23-May-18 21:42 38.650846 147.394196 39 36687ft 589kts
23-May-18 21:43 38.768999 147.539303 39 36679ft 589kts
23-May-18 21:44 38.887436 147.685477 39 36674ft 590kts
23-May-18 21:45 39.005303 147.831637 39 36715ft 590kts
23-May-18 21:46 39.123457 147.978873 40 36705ft 590kts
23-May-18 21:47 39.240926 148.125980 39 36714ft 589kts
23-May-18 21:48 39.357995 148.273307 40 36719ft 588kts
23-May-18 21:49 39.475274 148.421641 40 36711ft 589kts
23-May-18 21:50 39.591971 148.569986 40 36706ft 588kts
23-May-18 21:51 39.708418 148.718695 40 36715ft 587kts
23-May-18 21:52 39.824892 148.868272 40 36719ft 587kts
23-May-18 21:53 39.940636 149.017597 40 36709ft 586kts
23-May-18 21:54 40.056259 149.167544 40 36708ft 585kts
23-May-18 21:55 40.171269 149.317449 40 36719ft 584kts
23-May-18 21:56 40.285924 149.467675 40 36716ft 583kts
23-May-18 21:57 40.400523 149.618561 40 36707ft 582kts
23-May-18 21:58 40.514133 149.769442 40 36711ft 581kts
23-May-18 21:59 40.627417 149.920816 40 36720ft 582kts
23-May-18 22:00 40.740977 150.073429 40 36715ft 582kts
23-May-18 22:01 40.853854 150.225801 40 36708ft 581kts
23-May-18 22:02 40.966872 150.379192 40 36718ft 581kts
23-May-18 22:03 41.079459 150.532732 41 36723ft 581kts
23-May-18 22:04 41.191753 150.686810 41 36715ft 581kts
23-May-18 22:05 41.304225 150.841845 41 36712ft 581kts
23-May-18 22:06 41.416043 150.996874 41 36724ft 580kts
23-May-18 22:07 41.527450 151.152113 41 36722ft 580kts
23-May-18 22:08 41.638838 151.308177 41 36713ft 578kts
23-May-18 22:09 41.749433 151.463916 41 36718ft 577kts
23-May-18 22:10 41.859594 151.619905 41 36728ft 576kts
23-May-18 22:11 41.969705 151.776702 41 36725ft 575kts
23-May-18 22:12 42.079040 151.933105 41 36716ft 574kts
23-May-18 22:13 42.188509 152.090495 44 36725ft 577kts
23-May-18 22:14 42.298262 152.249572 43 36727ft 581kts
23-May-18 22:15 42.408334 152.409630 43 36737ft 582kts
23-May-18 22:16 42.518559 152.570866 43 36734ft 581kts
23-May-18 22:17 42.627960 152.731769 44 36726ft 580kts
23-May-18 22:18 42.736809 152.892859 43 36736ft 579kts
23-May-18 22:19 42.845644 153.054802 43 36741ft 578kts
23-May-18 22:20 42.953710 153.216421 44 36733ft 577kts
23-May-18 22:21 43.061685 153.378874 44 36734ft 576kts
23-May-18 22:22 43.168896 153.541094 44 36745ft 575kts
23-May-18 22:23 43.275725 153.703643 44 36708ft 574kts
23-May-18 22:24 43.382559 153.867083 44 36718ft 573kts
23-May-18 22:25 43.488735 154.030523 44 36712ft 573kts
23-May-18 22:26 43.594327 154.193962 43 36714ft 571kts
23-May-18 22:27 43.699854 154.358164 44 36726ft 570kts
23-May-18 22:28 43.804678 154.522358 44 36705ft 570kts
23-May-18 22:29 43.909182 154.686888 44 36715ft 569kts
23-May-18 22:30 44.013582 154.852234 44 36722ft 567kts
23-May-18 22:31 44.116959 155.016930 44 36753ft 565kts
23-May-18 22:32 44.219157 155.183116 45 36751ft 563kts
23-May-18 22:33 44.319374 155.350066 45 36744ft 561kts
23-May-18 22:34 44.419181 155.517097 45 36756ft 560kts
23-May-18 22:35 44.518891 155.684893 45 36761ft 559kts
23-May-18 22:36 44.617902 155.852537 45 36753ft 558kts
23-May-18 22:37 44.716529 156.020512 45 36752ft 558kts
23-May-18 22:38 44.814931 156.189064 45 36769ft 555kts
23-May-18 22:39 44.912400 156.357072 45 36769ft 554kts
23-May-18 22:40 45.009451 156.525328 46 36761ft 553kts
23-May-18 22:41 45.106443 156.694414 46 36767ft 551kts
23-May-18 22:42 45.186582 156.834963 45 36755ft 550kts
23-May-18 22:43 45.282323 157.003786 46 36753ft 549kts
23-May-18 22:44 45.377959 157.173374 46 36765ft 548kts
23-May-18 22:45 45.472757 157.342546 46 36771ft 547kts
23-May-18 22:46 45.567407 157.512397 46 36765ft 545kts
23-May-18 22:47 45.661208 157.681823 46 36766ft 544kts
23-May-18 22:48 45.754554 157.851442 46 36779ft 543kts
23-May-18 22:49 45.847861 158.021953 46 36776ft 542kts
23-May-18 22:50 45.940544 158.192457 46 36770ft 542kts
23-May-18 22:51 46.032975 158.363416 47 36780ft 542kts
23-May-18 22:52 46.125339 158.535296 47 36788ft 541kts
23-May-18 22:53 46.216997 158.707083 47 36783ft 540kts
23-May-18 22:54 46.308503 158.879501 47 36775ft 539kts
23-May-18 22:55 46.399198 159.051504 47 36783ft 538kts
23-May-18 22:56 46.489461 159.223655 47 36792ft 536kts
23-May-18 22:57 46.579515 159.396558 47 36786ft 535kts
23-May-18 22:58 46.668883 159.569212 47 36782ft 534kts
23-May-18 22:59 46.757907 159.742264 48 36791ft 534kts
23-May-18 23:00 46.846921 159.916356 47 36797ft 534kts
23-May-18 23:01 46.935346 160.090458 48 36792ft 533kts
23-May-18 23:02 47.023171 160.264391 48 36786ft 531kts
23-May-18 23:03 47.110841 160.439164 48 36795ft 530kts
23-May-18 23:04 47.197872 160.613706 48 36800ft 530kts
23-May-18 23:05 47.284885 160.789297 48 36792ft 530kts
23-May-18 23:06 47.371264 160.964861 48 36789ft 529kts
23-May-18 23:07 47.457268 161.140758 48 36797ft 529kts
23-May-18 23:08 47.543252 161.317565 49 36802ft 528kts
23-May-18 23:09 47.628118 161.494573 49 36795ft 527kts
23-May-18 23:10 47.712609 161.671859 49 36788ft 527kts
23-May-18 23:11 47.797039 161.850230 49 36797ft 526kts
23-May-18 23:12 47.880854 162.028469 49 36801ft 526kts
23-May-18 23:13 47.964358 162.207301 49 36797ft 526kts
23-May-18 23:14 48.047889 162.387242 49 36795ft 526kts
23-May-18 23:15 48.130709 162.566915 50 36805ft 525kts
23-May-18 23:16 48.213496 162.747584 50 36804ft 524kts
23-May-18 23:17 48.295595 162.928127 50 36794ft 524kts
23-May-18 23:18 48.377251 163.108818 50 36792ft 523kts
23-May-18 23:19 48.458847 163.290561 50 36801ft 523kts
23-May-18 23:20 48.539869 163.472254 50 36799ft 523kts
23-May-18 23:21 48.620579 163.654515 50 36787ft 523kts
23-May-18 23:22 48.701267 163.837927 51 36789ft 522kts
23-May-18 23:23 48.781380 164.021218 50 36796ft 522kts
23-May-18 23:24 48.861096 164.204985 51 36791ft 521kts
23-May-18 23:25 48.940692 164.389657 51 36780ft 521kts
23-May-18 23:26 49.019674 164.574152 51 36784ft 521kts
23-May-18 23:27 49.098578 164.759798 51 36790ft 521kts
23-May-18 23:28 49.176897 164.945341 51 36781ft 520kts
23-May-18 23:29 49.254896 165.131422 51 36771ft 520kts
23-May-18 23:30 49.332787 165.318577 51 36775ft 520kts
23-May-18 23:31 49.410090 165.505576 51 36780ft 519kts
23-May-18 23:32 49.486985 165.692869 51 36768ft 518kts
23-May-18 23:33 49.563752 165.881250 52 36760ft 518kts
23-May-18 23:34 49.639841 166.069297 52 36768ft 517kts
23-May-18 23:35 49.721969 166.250192 38 36765ft 512kts
23-May-18 23:36 49.827987 166.394479 35 36749ft 503kts
23-May-18 23:37 49.931611 166.539456 34 36758ft 502kts
23-May-18 23:38 50.035007 166.684429 35 36755ft 500kts
23-May-18 23:39 50.138303 166.830093 35 36741ft 499kts
23-May-18 23:40 50.240931 166.975761 35 36739ft 499kts
23-May-18 23:41 50.343783 167.122593 36 36747ft 499kts
23-May-18 23:42 50.446116 167.269632 36 36740ft 500kts
23-May-18 23:43 50.548415 167.417508 36 36727ft 500kts
23-May-18 23:44 50.650893 167.566589 36 36727ft 501kts
23-May-18 23:45 50.752850 167.715782 36 36734ft 501kts
23-May-18 23:46 50.854610 167.865648 36 36724ft 500kts
23-May-18 23:47 50.956446 168.016554 37 36714ft 500kts
23-May-18 23:48 51.057774 168.167681 37 36716ft 501kts
23-May-18 23:49 51.158975 168.319521 37 36720ft 500kts
23-May-18 23:50 51.260284 168.472583 37 36707ft 500kts
23-May-18 23:51 51.361071 168.625746 37 36698ft 500kts
23-May-18 23:52 51.461951 168.780137 38 36703ft 501kts
23-May-18 23:53 51.562393 168.934706 38 36706ft 501kts
23-May-18 23:54 51.662684 169.090132 39 36693ft 501kts
23-May-18 23:55 51.763200 169.246884 39 36686ft 502kts
23-May-18 23:56 51.863202 169.403903 39 36691ft 502kts
23-May-18 23:57 51.963066 169.561687 39 36692ft 502kts
23-May-18 23:58 52.062977 169.720607 40 36690ft 502kts
23-May-18 23:59 52.162347 169.879738 40 36682ft 502kts
24-May-18 00:00 52.261596 170.039640 40 36687ft 502kts
24-May-18 00:01 52.360870 170.200760 40 36690ft 502kts
24-May-18 00:02 52.459537 170.361924 40 36677ft 501kts
24-May-18 00:03 52.558163 170.524123 41 36673ft 500kts
24-May-18 00:04 52.656040 170.686209 41 36681ft 499kts
24-May-18 00:05 52.753609 170.848777 41 36680ft 499kts
24-May-18 00:06 52.851049 171.012322 41 36674ft 498kts
24-May-18 00:07 52.947894 171.175944 41 36672ft 497kts
24-May-18 00:08 53.044393 171.340048 42 36680ft 497kts
24-May-18 00:09 53.140791 171.505203 42 36677ft 496kts
24-May-18 00:10 53.236528 171.670301 42 36666ft 495kts
24-May-18 00:11 53.332125 171.836286 42 36668ft 494kts
24-May-18 00:12 53.426941 172.002068 42 36677ft 493kts
24-May-18 00:13 53.521324 172.168217 42 36670ft 492kts
24-May-18 00:14 53.615633 172.335402 43 36662ft 492kts
24-May-18 00:15 53.709520 172.502971 43 36671ft 492kts
24-May-18 00:16 53.803097 172.671202 43 36675ft 492kts
24-May-18 00:17 53.896739 172.840694 43 36666ft 492kts
24-May-18 00:18 53.989906 173.010529 43 36664ft 492kts
24-May-18 00:19 54.082572 173.180659 44 36677ft 489kts
24-May-18 00:20 54.174808 173.351160 44 36676ft 487kts
24-May-18 00:21 54.266364 173.521635 44 36668ft 487kts
24-May-18 00:22 54.357970 173.693402 44 36670ft 487kts
24-May-18 00:23 54.449099 173.865505 44 36682ft 488kts
24-May-18 00:24 54.539995 174.038388 45 36681ft 487kts
24-May-18 00:25 54.630854 174.212437 45 36665ft 487kts
24-May-18 00:26 54.721046 174.386475 45 36675ft 486kts
24-May-18 00:27 54.810757 174.560880 45 36680ft 485kts
24-May-18 00:28 54.900404 174.736330 45 36675ft 484kts
24-May-18 00:29 54.989369 174.911761 46 36673ft 484kts
24-May-18 00:30 55.077953 175.087772 46 36685ft 483kts
24-May-18 00:31 55.166448 175.264878 46 36687ft 482kts
24-May-18 00:32 55.254362 175.442034 46 36679ft 482kts
24-May-18 00:33 55.341871 175.619764 47 36683ft 481kts
24-May-18 00:34 55.429231 175.798459 47 36696ft 480kts
24-May-18 00:35 55.515866 175.976988 47 36694ft 479kts
24-May-18 00:36 55.602400 176.156637 47 36688ft 479kts
24-May-18 00:37 55.688351 176.336416 47 36696ft 479kts
24-May-18 00:38 55.774024 176.517007 47 36707ft 479kts
24-May-18 00:39 55.859830 176.699129 48 36702ft 480kts
24-May-18 00:40 55.945216 176.881832 48 36699ft 480kts
24-May-18 00:41 56.025824 177.072231 55 36705ft 481kts
24-May-18 00:42 56.094129 177.278085 57 36717ft 479kts
24-May-18 00:43 56.162154 177.483420 58 36720ft 479kts
24-May-18 00:44 56.229830 177.689777 58 36701ft 480kts
24-May-18 00:45 56.297504 177.897954 58 36714ft 481kts
24-May-18 00:46 56.364687 178.106363 58 36719ft 481kts
24-May-18 00:47 56.431695 178.316183 58 36711ft 481kts
24-May-18 00:48 56.498076 178.525781 59 36716ft 480kts
24-May-18 00:49 56.563998 178.735803 59 36729ft 479kts
24-May-18 00:50 56.629665 178.946849 59 36728ft 479kts
24-May-18 00:51 56.694708 179.157768 59 36723ft 478kts
24-May-18 00:52 56.759562 179.370057 60 36726ft 479kts
24-May-18 00:53 56.823899 179.582475 60 36739ft 479kts
24-May-18 00:54 56.887903 179.795728 60 36738ft 479kts
24-May-18 00:55 56.951678 -179.989785 60 36718ft 478kts
24-May-18 00:56 57.014822 -179.775478 60 36637ft 478kts
24-May-18 00:57 57.077713 -179.560044 61 36555ft 477kts
24-May-18 00:58 57.139917 -179.345015 61 36518ft 476kts
24-May-18 00:59 57.201668 -179.129562 61 36527ft 476kts
24-May-18 01:00 57.253001 -178.948862 61 36519ft 475kts
24-May-18 01:01 57.314003 -178.732345 62 36514ft 475kts
24-May-18 01:02 57.374537 -178.515364 62 36522ft 474kts
24-May-18 01:03 57.434758 -178.297541 62 36533ft 473kts
24-May-18 01:04 57.494249 -178.080246 62 36580ft 472kts
24-May-18 01:05 57.553248 -177.862662 62 36572ft 471kts
24-May-18 01:06 57.611948 -177.644043 63 36578ft 471kts
24-May-18 01:07 57.670160 -177.425279 63 36589ft 471kts
24-May-18 01:08 57.728080 -177.205342 63 36606ft 472kts
24-May-18 01:09 57.785968 -176.983507 63 36615ft 474kts
24-May-18 01:10 57.843411 -176.761118 63 36626ft 474kts
24-May-18 01:11 57.900618 -176.537360 64 36600ft 473kts
24-May-18 01:12 57.957129 -176.314042 64 36593ft 473kts
24-May-18 01:13 58.013150 -176.090513 64 36557ft 472kts
24-May-18 01:14 58.068857 -175.865913 65 36541ft 471kts
24-May-18 01:15 58.123984 -175.641424 65 36536ft 471kts
24-May-18 01:16 58.178690 -175.416324 65 36543ft 471kts
24-May-18 01:17 58.233129 -175.189951 65 36545ft 470kts
24-May-18 01:18 58.286970 -174.963803 66 36537ft 471kts
24-May-18 01:19 58.340452 -174.736696 66 36544ft 471kts
24-May-18 01:20 58.393768 -174.507889 66 36552ft 472kts
24-May-18 01:21 58.446587 -174.278760 66 36544ft 472kts
24-May-18 01:22 58.499228 -174.048028 66 36535ft 473kts
24-May-18 01:23 58.551265 -173.817339 67 36543ft 473kts
24-May-18 01:24 58.602932 -173.585859 67 36547ft 473kts
24-May-18 01:25 58.654353 -173.352846 67 36537ft 473kts
24-May-18 01:26 58.705199 -173.119835 67 36554ft 473kts
24-May-18 01:27 58.755679 -172.885951 67 36592ft 474kts
24-May-18 01:28 58.805886 -172.650571 67 36583ft 474kts
24-May-18 01:29 58.855528 -172.415261 68 36579ft 474kts
24-May-18 01:30 58.904756 -172.179167 68 36588ft 474kts
24-May-18 01:31 58.953681 -171.941802 68 36592ft 474kts
24-May-18 01:32 59.002131 -171.703940 68 36583ft 475kts
24-May-18 01:33 59.050339 -171.464448 68 36605ft 475kts
24-May-18 01:34 59.097955 -171.225006 68 36608ft 475kts
24-May-18 01:35 59.145125 -170.984863 69 36601ft 475kts
24-May-18 01:36 59.192031 -170.743335 69 36604ft 476kts
24-May-18 01:37 59.238361 -170.501602 69 36618ft 476kts
24-May-18 01:38 59.284280 -170.259174 69 36602ft 476kts
24-May-18 01:39 59.329843 -170.015391 69 36586ft 476kts
24-May-18 01:40 59.374870 -169.771591 69 36599ft 476kts
24-May-18 01:41 59.419434 -169.526983 70 36608ft 477kts
24-May-18 01:42 59.463762 -169.280732 70 36631ft 477kts
24-May-18 01:43 59.507469 -169.034471 70 36635ft 476kts
24-May-18 01:44 59.550757 -168.787397 70 36630ft 476kts
24-May-18 01:45 59.593469 -168.540504 70 36642ft 476kts
24-May-18 01:46 59.635656 -168.292989 70 36654ft 476kts
24-May-18 01:47 59.677567 -168.044115 71 36650ft 476kts
24-May-18 01:48 59.718843 -167.795398 71 36653ft 476kts
24-May-18 01:49 59.759638 -167.546094 71 36665ft 476kts
24-May-18 01:50 59.800127 -167.295190 71 36669ft 476kts
24-May-18 01:51 59.840091 -167.044058 72 36661ft 477kts
24-May-18 01:52 59.879586 -166.792180 72 36666ft 478kts
24-May-18 01:53 59.918774 -166.538397 72 36689ft 478kts
24-May-18 01:54 59.957413 -166.284706 72 36684ft 479kts
24-May-18 01:55 59.995067 -166.029159 73 36675ft 479kts
24-May-18 01:56 60.025114 -165.770195 79 36679ft 479kts
24-May-18 01:57 60.049957 -165.508678 78 36692ft 479kts
24-May-18 01:58 60.074546 -165.246461 78 36690ft 478kts
24-May-18 01:59 60.098542 -164.984910 79 36682ft 478kts
24-May-18 02:00 60.122034 -164.722697 79 36688ft 478kts
24-May-18 02:01 60.145110 -164.459037 79 36694ft 479kts
24-May-18 02:02 60.167615 -164.195318 79 36686ft 480kts
24-May-18 02:03 60.189633 -163.930898 80 36679ft 481kts
24-May-18 02:04 60.211233 -163.665076 80 36690ft 481kts
24-May-18 02:05 60.232197 -163.399893 80 36695ft 480kts
24-May-18 02:06 60.252631 -163.134369 80 36698ft 480kts
24-May-18 02:07 60.272638 -162.867700 81 36693ft 480kts
24-May-18 02:08 60.291965 -162.601702 81 36701ft 480kts
24-May-18 02:09 60.310864 -162.334445 81 36710ft 481kts
24-May-18 02:10 60.329205 -162.067459 81 36706ft 481kts
24-May-18 02:11 60.347016 -161.799820 82 36702ft 481kts
24-May-18 02:12 60.364328 -161.531020 82 36701ft 481kts
24-May-18 02:13 60.381054 -161.262854 82 36711ft 481kts
24-May-18 02:14 60.397242 -160.994526 82 36708ft 481kts
24-May-18 02:15 60.412936 -160.724988 82 36697ft 481kts
24-May-18 02:16 60.428048 -160.455996 83 36702ft 482kts
24-May-18 02:17 60.442634 -160.186426 83 36713ft 482kts
24-May-18 02:18 60.456726 -159.915411 83 36705ft 483kts
24-May-18 02:19 60.470230 -159.645069 84 36703ft 483kts
24-May-18 02:20 60.483237 -159.373563 84 36714ft 482kts
24-May-18 02:21 60.495624 -159.103167 84 36716ft 482kts
24-May-18 02:22 60.507467 -158.832582 84 36709ft 482kts
24-May-18 02:23 60.518799 -158.560883 84 36710ft 482kts
24-May-18 02:24 60.529541 -158.289925 85 36742ft 482kts
24-May-18 02:25 60.539751 -158.018419 85 36740ft 483kts
24-May-18 02:26 60.549442 -157.745453 85 36752ft 483kts
24-May-18 02:27 60.558562 -157.473238 85 36756ft 483kts
24-May-18 02:28 60.567121 -157.200781 86 36743ft 483kts
24-May-18 02:29 60.575162 -156.927288 86 36736ft 483kts
24-May-18 02:30 60.582606 -156.654656 86 36742ft 483kts
24-May-18 02:31 60.589530 -156.380839 86 36732ft 484kts
24-May-18 02:32 60.595864 -156.107830 86 36720ft 484kts
24-May-18 02:33 60.601651 -155.834504 87 36724ft 484kts
24-May-18 02:34 60.606905 -155.560180 87 36730ft 484kts
24-May-18 02:35 60.611537 -155.286796 87 36718ft 484kts
24-May-18 02:36 60.615674 -155.013396 88 36716ft 483kts
24-May-18 02:37 60.619238 -154.739111 88 36734ft 483kts
24-May-18 02:38 60.622230 -154.465622 88 36732ft 484kts
24-May-18 02:39 60.624659 -154.191963 88 36725ft 484kts
24-May-18 02:40 60.626540 -153.917268 89 36734ft 484kts
24-May-18 02:41 60.627865 -153.643094 89 36742ft 485kts
24-May-18 02:42 60.628608 -153.367727 89 36737ft 485kts
24-May-18 02:43 60.628808 -153.093443 90 36742ft 484kts
24-May-18 02:44 60.628428 -152.819279 90 36762ft 484kts
24-May-18 02:45 60.627499 -152.544135 90 36762ft 485kts
24-May-18 02:46 60.626009 -152.269569 90 36762ft 486kts
24-May-18 02:47 60.623934 -151.994711 91 36772ft 486kts
24-May-18 02:48 60.621336 -151.718728 91 36774ft 486kts
24-May-18 02:49 60.618106 -151.443693 91 36765ft 486kts
24-May-18 02:50 60.614487 -151.168744 91 36767ft 486kts
24-May-18 02:51 60.610671 -150.893220 92 36792ft 486kts
24-May-18 02:52 60.606380 -150.618788 92 36782ft 486kts
24-May-18 02:53 60.601511 -150.343392 92 36787ft 486kts
24-May-18 02:54 60.596112 -150.068705 92 36794ft 487kts
24-May-18 02:55 60.590120 -149.793706 93 36791ft 487kts
24-May-18 02:56 60.583533 -149.517603 93 36797ft 488kts
24-May-18 02:57 60.576408 -149.242653 93 36820ft 487kts
24-May-18 02:58 60.568712 -148.967848 93 36826ft 487kts
24-May-18 02:59 60.560423 -148.692227 94 36822ft 487kts
24-May-18 03:00 60.551610 -148.417589 94 36818ft 488kts
24-May-18 03:01 60.542210 -148.142763 94 36825ft 488kts
24-May-18 03:02 60.532201 -147.866830 95 36821ft 489kts
24-May-18 03:03 60.521650 -147.591779 95 36806ft 489kts
24-May-18 03:04 60.510534 -147.316991 95 36838ft 489kts
24-May-18 03:05 60.498833 -147.041636 95 36820ft 489kts
24-May-18 03:06 60.486597 -146.767473 96 36829ft 488kts
24-May-18 03:07 60.473765 -146.492591 96 36823ft 489kts
24-May-18 03:08 60.460389 -146.218599 97 36822ft 489kts
24-May-18 03:09 60.446455 -145.944757 97 36872ft 489kts
24-May-18 03:10 60.431902 -145.670160 97 36873ft 489kts
24-May-18 03:11 60.416841 -145.396638 97 36885ft 489kts
24-May-18 03:12 60.401220 -145.123653 98 36882ft 489kts
24-May-18 03:13 60.385009 -144.850179 98 36869ft 489kts
24-May-18 03:14 60.368292 -144.577857 98 36868ft 489kts
24-May-18 03:15 60.351010 -144.305812 99 36874ft 489kts
24-May-18 03:16 60.333097 -144.032980 99 36866ft 489kts
24-May-18 03:17 60.314697 -143.761213 99 36854ft 489kts
24-May-18 03:18 60.298860 -143.534097 99 36861ft 489kts
24-May-18 03:19 60.279455 -143.263080 100 36863ft 489kts
24-May-18 03:20 60.259497 -142.992491 100 36851ft 489kts
24-May-18 03:21 60.238939 -142.721542 100 36851ft 488kts
24-May-18 03:22 60.217877 -142.451787 100 36861ft 489kts
24-May-18 03:23 60.196290 -142.182213 101 36865ft 489kts
24-May-18 03:24 60.174050 -141.912138 101 36860ft 489kts
24-May-18 03:25 60.147526 -141.598394 101 36810ft 489kts
24-May-18 03:26 60.124182 -141.329975 102 36827ft 489kts
24-May-18 03:27 60.104243 -141.105825 102 36824ft 488kts
24-May-18 03:28 60.079967 -140.838575 103 36838ft 488kts
24-May-18 03:29 60.055068 -140.570956 103 36855ft 488kts
24-May-18 03:30 60.029723 -140.304761 103 36862ft 487kts
24-May-18 03:31 60.003643 -140.038254 104 36867ft 487kts
24-May-18 03:32 59.976215 -139.773465 105 36882ft 487kts
24-May-18 03:33 59.947918 -139.509332 105 36888ft 487kts
24-May-18 03:34 59.918979 -139.244495 105 36878ft 488kts
24-May-18 03:35 59.889565 -138.980902 105 36876ft 488kts
24-May-18 03:36 59.859665 -138.717774 106 36876ft 488kts
24-May-18 03:37 59.829176 -138.454583 106 36856ft 487kts
24-May-18 03:38 59.798313 -138.193334 107 36848ft 486kts
24-May-18 03:39 59.766912 -137.932231 107 36850ft 485kts
24-May-18 03:40 59.735159 -137.672875 107 36845ft 484kts
24-May-18 03:41 59.702780 -137.413110 108 36833ft 484kts
24-May-18 03:42 59.669932 -137.154706 108 36839ft 484kts
24-May-18 03:43 59.636681 -136.897086 109 36854ft 483kts
24-May-18 03:44 59.602850 -136.639666 109 36857ft 482kts
24-May-18 03:45 59.568752 -136.384299 110 36861ft 481kts
24-May-18 03:46 59.534261 -136.130337 110 36872ft 480kts
24-May-18 03:47 59.499235 -135.876461 111 36891ft 479kts
24-May-18 03:48 59.463904 -135.624528 111 36893ft 478kts
24-May-18 03:49 59.428053 -135.372970 111 36876ft 478kts
24-May-18 03:50 59.391664 -135.121299 112 36884ft 478kts
24-May-18 03:51 59.354907 -134.871199 112 36894ft 478kts
24-May-18 03:52 59.317691 -134.621637 113 36888ft 477kts
24-May-18 03:53 59.279932 -134.372231 113 36889ft 476kts
24-May-18 03:54 59.241922 -134.124858 113 36905ft 475kts
24-May-18 03:55 59.203385 -133.877708 114 36910ft 474kts
24-May-18 03:56 59.164632 -133.632603 114 36901ft 473kts
24-May-18 03:57 59.125486 -133.388377 115 36902ft 473kts
24-May-18 03:58 59.085750 -133.144169 115 36912ft 472kts
24-May-18 03:59 59.045747 -132.901584 115 36902ft 471kts
24-May-18 04:00 59.005390 -132.660103 116 36897ft 470kts
24-May-18 04:01 58.964537 -132.418972 116 36902ft 469kts
24-May-18 04:02 58.923475 -132.179455 117 36844ft 469kts
24-May-18 04:03 58.881930 -131.940828 117 36863ft 468kts
24-May-18 04:04 58.840130 -131.702815 118 36864ft 466kts
24-May-18 04:05 58.797979 -131.466990 118 36856ft 465kts
24-May-18 04:06 58.755512 -131.232117 118 36864ft 464kts
24-May-18 04:07 58.712578 -130.997075 119 36859ft 464kts
24-May-18 04:08 58.669376 -130.763692 119 36852ft 463kts
24-May-18 04:09 58.625604 -130.530572 119 36855ft 463kts
24-May-18 04:10 58.581642 -130.298938 120 36860ft 463kts
24-May-18 04:11 58.537230 -130.067757 120 36857ft 462kts
24-May-18 04:12 58.494987 -129.834511 117 36857ft 465kts
24-May-18 04:13 58.458914 -129.597175 116 36878ft 466kts
24-May-18 04:14 58.422228 -129.360015 116 36876ft 467kts
24-May-18 04:15 58.385043 -129.122558 116 36882ft 466kts
24-May-18 04:16 58.347536 -128.886448 116 36882ft 466kts
24-May-18 04:17 58.309659 -128.651150 116 36880ft 465kts
24-May-18 04:18 58.271243 -128.415823 116 36876ft 465kts
24-May-18 04:19 58.232636 -128.182232 117 36883ft 464kts
24-May-18 04:20 58.193543 -127.948836 117 36873ft 463kts
24-May-18 04:21 58.154213 -127.716964 117 36850ft 463kts
24-May-18 04:22 58.114373 -127.485487 117 36823ft 463kts
24-May-18 04:23 58.073974 -127.253442 117 36825ft 464kts
24-May-18 04:24 58.033194 -127.022195 117 36808ft 465kts
24-May-18 04:25 57.991919 -126.791042 117 36811ft 466kts
24-May-18 04:26 57.950091 -126.559560 117 36800ft 466kts
24-May-18 04:27 57.907883 -126.329033 117 36799ft 467kts
24-May-18 04:28 57.865170 -126.098559 117 36808ft 468kts
24-May-18 04:29 57.821907 -125.867718 117 36805ft 468kts
24-May-18 04:30 57.778330 -125.638235 117 36794ft 467kts
24-May-18 04:31 57.734189 -125.408387 117 36793ft 468kts
24-May-18 04:32 57.689808 -125.180024 117 36802ft 468kts
24-May-18 04:33 57.644966 -124.951957 117 36796ft 468kts
24-May-18 04:34 57.599486 -124.723283 117 36787ft 469kts
24-May-18 04:35 57.553666 -124.495634 117 36794ft 470kts
24-May-18 04:36 57.507384 -124.268174 117 36799ft 471kts
24-May-18 04:37 57.460535 -124.040556 117 36790ft 471kts
24-May-18 04:38 57.413376 -123.814090 117 36785ft 471kts
24-May-18 04:39 57.365603 -123.587265 117 36796ft 471kts
24-May-18 04:40 57.317636 -123.361905 117 36797ft 471kts
24-May-18 04:41 57.269275 -123.137194 117 36788ft 471kts
24-May-18 04:42 57.220372 -122.912396 117 36767ft 471kts
24-May-18 04:43 57.171217 -122.688990 117 36776ft 470kts
24-May-18 04:44 57.121701 -122.466103 117 36769ft 471kts
24-May-18 04:45 57.071571 -122.243075 117 36761ft 471kts
24-May-18 04:46 57.021221 -122.021264 117 36768ft 471kts
24-May-18 04:47 56.970470 -121.800117 117 36769ft 471kts
24-May-18 04:48 56.919172 -121.578764 117 36755ft 471kts
24-May-18 04:49 56.867628 -121.358742 117 36756ft 471kts
24-May-18 04:50 56.815529 -121.138620 117 36763ft 471kts
24-May-18 04:51 56.763218 -120.919802 117 36758ft 471kts
24-May-18 04:52 56.710506 -120.701535 117 36747ft 471kts
24-May-18 04:53 56.657240 -120.483153 117 36745ft 471kts
24-May-18 04:54 56.603774 -120.266120 117 36738ft 471kts
24-May-18 04:55 56.549946 -120.049800 117 36752ft 471kts
24-May-18 04:56 56.495607 -119.833544 117 36721ft 471kts
24-May-18 04:57 56.441051 -119.618472 117 36729ft 471kts
24-May-18 04:58 56.386112 -119.404051 117 36723ft 471kts
24-May-18 04:59 56.330604 -119.189439 117 36714ft 471kts
24-May-18 05:00 56.274897 -118.976077 117 36719ft 471kts
24-May-18 05:01 56.218790 -118.763198 117 36737ft 471kts
24-May-18 05:02 56.162146 -118.550371 117 36729ft 471kts
24-May-18 05:03 56.105323 -118.338858 116 36737ft 471kts
24-May-18 05:04 56.048024 -118.127441 116 36743ft 471kts
24-May-18 05:05 55.990548 -117.917399 117 36736ft 471kts
24-May-18 05:06 55.932743 -117.708082 117 36733ft 470kts
24-May-18 05:07 55.874396 -117.498717 116 36743ft 470kts
24-May-18 05:08 55.815874 -117.290621 116 36743ft 471kts
24-May-18 05:09 55.757012 -117.083176 116 36733ft 470kts
24-May-18 05:10 55.697624 -116.875715 116 36736ft 471kts
24-May-18 05:11 55.638075 -116.669579 116 36747ft 470kts
24-May-18 05:12 55.578286 -116.464349 116 36745ft 469kts
24-May-18 05:13 55.517971 -116.259315 116 36752ft 469kts
24-May-18 05:14 55.457607 -116.055641 116 36764ft 469kts
24-May-18 05:15 55.396689 -115.852097 117 36765ft 469kts
24-May-18 05:16 55.335713 -115.649830 116 36781ft 469kts
24-May-18 05:17 55.274364 -115.448163 117 36780ft 469kts
24-May-18 05:18 55.212427 -115.246456 117 36772ft 469kts
24-May-18 05:19 55.150364 -115.045931 117 36777ft 469kts
24-May-18 05:20 55.088054 -114.846204 117 36785ft 468kts
24-May-18 05:21 55.025287 -114.646778 118 36784ft 468kts
24-May-18 05:22 54.962428 -114.448706 118 36773ft 467kts
24-May-18 05:23 54.899373 -114.251586 118 36777ft 467kts
24-May-18 05:24 54.835800 -114.054548 118 36787ft 466kts
24-May-18 05:25 54.772251 -113.859142 119 36778ft 465kts
24-May-18 05:26 54.708405 -113.664368 119 36804ft 463kts
24-May-18 05:27 54.645252 -113.473264 119 38125ft 450kts
24-May-18 05:28 54.581180 -113.283947 121 39012ft 460kts
24-May-18 05:29 54.510675 -113.101231 129 40141ft 461kts
24-May-18 05:30 54.428975 -112.931608 129 40777ft 461kts
24-May-18 05:31 54.347822 -112.761993 129 40799ft 460kts
24-May-18 05:32 54.265723 -112.591761 129 40791ft 464kts
24-May-18 05:33 54.183118 -112.421662 130 40796ft 467kts
24-May-18 05:34 54.113876 -112.279985 130 40809ft 466kts
24-May-18 05:35 54.031192 -112.111825 130 40803ft 459kts
24-May-18 05:36 53.949320 -111.946465 130 40810ft 457kts
24-May-18 05:37 53.853539 -111.754422 130 40824ft 456kts
24-May-18 05:38 53.771511 -111.591129 130 40831ft 456kts
24-May-18 05:39 53.689242 -111.428431 130 40826ft 456kts
24-May-18 05:40 53.620202 -111.292709 131 40822ft 456kts
24-May-18 05:41 53.537458 -111.131048 131 40840ft 457kts
24-May-18 05:42 53.454388 -110.969761 131 40843ft 457kts
24-May-18 05:43 53.370761 -110.808504 131 40840ft 457kts
24-May-18 05:44 53.287117 -110.648271 131 40855ft 458kts
24-May-18 05:45 53.203250 -110.488560 131 40864ft 458kts
24-May-18 05:46 53.118821 -110.328911 131 40857ft 458kts
24-May-18 05:47 53.034429 -110.170298 131 40852ft 458kts
24-May-18 05:48 52.949783 -110.012248 132 40859ft 459kts
24-May-18 05:49 52.864585 -109.854170 132 40863ft 459kts
24-May-18 05:50 52.779379 -109.697098 132 40850ft 459kts
24-May-18 05:51 52.693705 -109.540131 132 40856ft 459kts
24-May-18 05:52 52.608089 -109.384316 132 40865ft 459kts
24-May-18 05:53 52.522290 -109.229071 132 40858ft 459kts
24-May-18 05:54 52.435950 -109.073902 133 40852ft 459kts
24-May-18 05:55 52.349685 -108.919784 133 40858ft 459kts
24-May-18 05:56 52.263207 -108.766274 133 40864ft 460kts
24-May-18 05:57 52.176186 -108.612702 133 40854ft 460kts
24-May-18 05:58 52.089290 -108.460364 133 40842ft 459kts
24-May-18 05:59 52.002254 -108.308688 133 40850ft 459kts
24-May-18 06:00 51.914658 -108.156947 134 40850ft 460kts
24-May-18 06:01 51.827141 -108.006294 134 40840ft 460kts
24-May-18 06:02 51.739100 -107.855671 134 40845ft 460kts
24-May-18 06:03 51.651169 -107.706110 134 40855ft 460kts
24-May-18 06:04 51.563046 -107.557135 134 40857ft 460kts
24-May-18 06:05 51.474409 -107.408191 135 40846ft 460kts
24-May-18 06:06 51.385954 -107.260474 135 40851ft 460kts
24-May-18 06:07 51.297381 -107.113405 135 40858ft 459kts
24-May-18 06:08 51.208404 -106.966526 135 40849ft 459kts
24-May-18 06:09 51.119631 -106.820883 135 40842ft 458kts
24-May-18 06:10 51.030748 -106.675863 135 40849ft 458kts
24-May-18 06:11 50.941426 -106.531032 136 40854ft 458kts
24-May-18 06:12 50.852291 -106.387334 136 40843ft 457kts
24-May-18 06:13 50.762756 -106.243823 136 40841ft 457kts
24-May-18 06:14 50.673337 -106.101311 136 40849ft 457kts
24-May-18 06:15 50.583749 -105.959384 136 40857ft 457kts
24-May-18 06:16 50.493929 -105.817843 136 40849ft 456kts
24-May-18 06:17 50.404379 -105.677550 136 40843ft 455kts
24-May-18 06:18 50.309645 -105.546979 143 40848ft 453kts
24-May-18 06:19 50.202320 -105.444533 151 40856ft 451kts
24-May-18 06:20 50.094066 -105.346145 150 40844ft 450kts
24-May-18 06:21 49.985926 -105.248553 151 40841ft 450kts
24-May-18 06:22 49.881441 -105.154690 151 40849ft 450kts
24-May-18 06:23 49.773207 -105.057963 151 40851ft 449kts
24-May-18 06:24 49.664681 -104.961486 151 40841ft 448kts
24-May-18 06:25 49.556696 -104.865987 151 40840ft 448kts
24-May-18 06:26 49.448713 -104.770983 151 40851ft 447kts
24-May-18 06:27 49.340504 -104.676255 151 40850ft 447kts
24-May-18 06:28 49.232581 -104.582276 151 40839ft 447kts
24-May-18 06:29 49.124617 -104.488707 152 40835ft 446kts
24-May-18 06:30 49.016165 -104.395231 152 40844ft 447kts
24-May-18 06:31 48.907934 -104.302393 152 40847ft 447kts
24-May-18 06:32 48.799628 -104.209947 152 40842ft 447kts
24-May-18 06:33 48.690788 -104.117504 152 40856ft 447kts
24-May-18 06:34 48.582176 -104.025741 152 40859ft 448kts
24-May-18 06:35 48.473589 -103.934442 152 40850ft 446kts
24-May-18 06:36 48.364826 -103.843440 152 40855ft 446kts
24-May-18 06:37 48.256067 -103.754115 155 40867ft 446kts
24-May-18 06:38 48.143508 -103.675689 157 40860ft 445kts
24-May-18 06:39 48.030894 -103.599152 157 40853ft 445kts
24-May-18 06:40 47.918260 -103.523024 157 40867ft 445kts
24-May-18 06:41 47.805203 -103.446987 157 40874ft 444kts
24-May-18 06:42 47.692674 -103.371587 157 40864ft 444kts
24-May-18 06:43 47.580225 -103.296636 158 40868ft 443kts
24-May-18 06:44 47.467481 -103.221921 158 40886ft 443kts
24-May-18 06:45 47.355264 -103.147796 158 40886ft 442kts
24-May-18 06:46 47.243136 -103.074094 158 40886ft 441kts
24-May-18 06:47 47.130683 -103.000590 158 40899ft 441kts
24-May-18 06:48 47.018615 -102.927631 158 40897ft 441kts
24-May-18 06:49 46.906152 -102.854716 159 40883ft 441kts
24-May-18 06:50 46.794066 -102.782430 159 40886ft 441kts
24-May-18 06:51 46.682011 -102.710485 159 40896ft 440kts
24-May-18 06:52 46.569655 -102.638650 159 40896ft 440kts
24-May-18 06:53 46.457756 -102.567470 159 40902ft 439kts
24-May-18 06:54 46.345892 -102.496570 159 40924ft 439kts
24-May-18 06:55 46.233715 -102.425893 159 40930ft 438kts
24-May-18 06:56 46.122056 -102.355780 160 40925ft 438kts
24-May-18 06:57 46.010127 -102.285806 160 40934ft 437kts
24-May-18 06:58 45.898610 -102.216454 160 40941ft 437kts
24-May-18 06:59 45.787141 -102.147371 160 40931ft 437kts
24-May-18 07:00 45.675228 -102.078321 160 40926ft 437kts
24-May-18 07:01 45.563641 -102.009793 160 40944ft 437kts
24-May-18 07:02 45.451959 -101.941557 161 40936ft 437kts
24-May-18 07:03 45.340002 -101.873344 161 40933ft 437kts
24-May-18 07:04 45.228480 -101.805767 161 40943ft 436kts
24-May-18 07:05 45.116532 -101.738216 162 40944ft 436kts
24-May-18 07:06 45.001245 -101.688552 170 40932ft 432kts
24-May-18 07:07 44.884090 -101.649478 170 40943ft 431kts
24-May-18 07:08 44.767488 -101.610280 170 40954ft 431kts
24-May-18 07:09 44.650941 -101.571275 170 40948ft 431kts
24-May-18 07:10 44.533968 -101.532227 170 40954ft 431kts
24-May-18 07:11 44.417374 -101.493510 170 40972ft 431kts
24-May-18 07:12 44.300674 -101.454929 170 40977ft 431kts
24-May-18 07:13 44.183526 -101.416363 170 40970ft 431kts
24-May-18 07:14 44.066785 -101.378037 170 40977ft 431kts
24-May-18 07:15 43.950008 -101.339894 170 40987ft 431kts
24-May-18 07:16 43.832798 -101.301806 170 40983ft 431kts
24-May-18 07:17 43.716036 -101.263925 171 40984ft 431kts
24-May-18 07:18 43.598873 -101.226113 171 41005ft 431kts
24-May-18 07:19 43.482140 -101.188594 171 41011ft 431kts
24-May-18 07:20 43.365463 -101.151242 171 41013ft 431kts
24-May-18 07:21 43.248407 -101.113893 171 41027ft 431kts
24-May-18 07:22 43.131802 -101.076832 171 41037ft 430kts
24-May-18 07:23 43.015219 -101.040006 171 41032ft 430kts
24-May-18 07:24 42.898268 -101.003111 171 41036ft 430kts
24-May-18 07:25 42.781683 -100.966500 171 41057ft 430kts
24-May-18 07:26 42.665067 -100.929982 171 41048ft 431kts
24-May-18 07:27 42.547909 -100.893510 171 41053ft 431kts
24-May-18 07:28 42.431125 -100.857249 171 41067ft 431kts
24-May-18 07:29 42.313925 -100.821050 171 41064ft 431kts
24-May-18 07:30 42.197028 -100.785060 171 41059ft 431kts
24-May-18 07:31 42.080094 -100.749160 171 41070ft 432kts
24-May-18 07:32 41.964550 -100.703988 158 41079ft 437kts
24-May-18 07:33 41.859040 -100.620751 153 41067ft 442kts
24-May-18 07:34 41.752530 -100.536807 154 41061ft 444kts
24-May-18 07:35 41.646185 -100.453007 154 41069ft 444kts
24-May-18 07:36 41.539391 -100.369217 154 41068ft 444kts
24-May-18 07:37 41.432922 -100.286006 154 41057ft 444kts
24-May-18 07:38 41.326400 -100.203108 154 41062ft 444kts
24-May-18 07:39 41.219533 -100.120164 154 41072ft 444kts
24-May-18 07:40 41.112953 -100.037810 153 41067ft 443kts
24-May-18 07:41 41.006363 -99.955780 153 41060ft 443kts
24-May-18 07:42 40.899349 -99.873721 153 41066ft 443kts
24-May-18 07:43 40.792757 -99.792250 153 41074ft 442kts
24-May-18 07:44 40.686500 -99.711415 153 41070ft 441kts
24-May-18 07:45 40.580041 -99.630690 153 41065ft 440kts
24-May-18 07:46 40.474019 -99.550555 153 41078ft 440kts
24-May-18 07:47 40.367587 -99.470447 153 41085ft 440kts
24-May-18 07:48 40.261347 -99.390760 153 41075ft 440kts
24-May-18 07:49 40.155018 -99.311339 153 41073ft 440kts
24-May-18 07:50 40.048353 -99.231875 153 41088ft 440kts
24-May-18 07:51 39.941929 -99.152979 153 41086ft 441kts
24-May-18 07:52 39.835284 -99.074136 153 41076ft 441kts
24-May-18 07:53 39.728111 -98.995208 153 41081ft 442kts
24-May-18 07:54 39.621156 -98.916719 153 41097ft 442kts
24-May-18 07:55 39.514079 -98.838454 153 41090ft 442kts
24-May-18 07:56 39.406584 -98.760065 153 41083ft 443kts
24-May-18 07:57 39.317168 -98.695207 153 41096ft 443kts
24-May-18 07:58 39.209842 -98.617471 153 41088ft 443kts
24-May-18 07:59 39.101984 -98.539690 153 41079ft 443kts
24-May-18 08:00 38.994287 -98.462259 153 41087ft 444kts
24-May-18 08:01 38.886057 -98.384770 153 41094ft 445kts
24-May-18 08:02 38.777943 -98.307610 153 41103ft 445kts
24-May-18 08:03 38.669577 -98.230536 153 41099ft 446kts
24-May-18 08:04 38.560582 -98.153294 152 41111ft 447kts
24-May-18 08:05 38.451662 -98.076371 152 41119ft 448kts
24-May-18 08:06 38.342480 -97.999526 152 41112ft 449kts
24-May-18 08:07 38.232757 -97.922575 152 41118ft 449kts
24-May-18 08:08 38.123228 -97.846005 153 41126ft 450kts
24-May-18 08:09 38.013650 -97.769664 153 41119ft 450kts
24-May-18 08:10 37.903618 -97.693321 153 41121ft 450kts
24-May-18 08:11 37.793787 -97.617418 153 41139ft 450kts
24-May-18 08:12 37.679063 -97.554754 163 41141ft 448kts
24-May-18 08:13 37.560982 -97.504818 162 41131ft 448kts
24-May-18 08:14 37.442950 -97.454309 162 41140ft 449kts
24-May-18 08:15 37.324300 -97.403834 162 41147ft 449kts
24-May-18 08:16 37.205950 -97.353575 162 41138ft 449kts
24-May-18 08:17 37.087464 -97.303469 162 41143ft 450kts
24-May-18 08:18 36.968399 -97.253325 162 41150ft 450kts
24-May-18 08:19 36.849630 -97.203351 162 41140ft 451kts
24-May-18 08:20 36.727669 -97.172818 176 41131ft 448kts
24-May-18 08:21 36.604638 -97.189855 190 41129ft 445kts
24-May-18 08:22 36.482114 -97.214539 189 41129ft 447kts
24-May-18 08:23 36.359043 -97.239322 190 41138ft 447kts
24-May-18 08:24 36.236235 -97.263988 189 41144ft 448kts
24-May-18 08:25 36.113348 -97.288559 190 41129ft 448kts
24-May-18 08:26 35.989989 -97.313162 190 41127ft 448kts
24-May-18 08:27 35.866925 -97.337615 190 41135ft 449kts
24-May-18 08:28 35.743709 -97.362051 190 41133ft 449kts
24-May-18 08:29 35.619931 -97.386504 190 41133ft 449kts
24-May-18 08:30 35.496569 -97.410777 190 41143ft 449kts
24-May-18 08:31 35.438932 -97.422111 190 41143ft 450kts
24-May-18 08:32 35.438932 -97.422111 190 41143ft 450kts
24-May-18 08:33 35.438932 -97.422111 190 41143ft 450kts
24-May-18 08:34 35.438932 -97.422111 190 41143ft 450kts
24-May-18 08:35 35.438932 -97.422111 190 41143ft 450kts
24-May-18 08:36 35.438932 -97.422111 190 41143ft 450kts
24-May-18 08:37 35.438932 -97.422111 190 41143ft 450kts
24-May-18 08:38 35.438932 -97.422111 190 41143ft 450kts
24-May-18 08:39 35.438932 -97.422111 190 41143ft 450kts
24-May-18 08:40 35.438932 -97.422111 190 41143ft 450kts
24-May-18 08:41 35.438932 -97.422111 190 41143ft 450kts
24-May-18 08:42 35.438932 -97.422111 190 41143ft 450kts
24-May-18 08:43 35.438932 -97.422111 190 41143ft 450kts
24-May-18 08:44 35.438932 -97.422111 190 41143ft 450kts
24-May-18 08:45 35.438932 -97.422111 190 41143ft 450kts
24-May-18 08:46 35.438932 -97.422111 190 41143ft 450kts
24-May-18 08:47 35.438932 -97.422111 190 41143ft 450kts
24-May-18 08:48 35.438932 -97.422111 190 41143ft 450kts
24-May-18 08:49 35.438932 -97.422111 190 41143ft 450kts
24-May-18 08:50 35.438932 -97.422111 190 41143ft 450kts
24-May-18 08:51 35.438932 -97.422111 190 41143ft 450kts
24-May-18 08:52 35.438932 -97.422111 190 41143ft 450kts
24-May-18 08:53 35.438932 -97.422111 190 41143ft 450kts
24-May-18 08:54 35.438932 -97.422111 190 41143ft 450kts
24-May-18 08:55 35.438932 -97.422111 190 41143ft 450kts
24-May-18 08:56 35.438932 -97.422111 190 41143ft 450kts
24-May-18 08:57 35.438932 -97.422111 190 41143ft 450kts
24-May-18 08:58 35.438932 -97.422111 190 41143ft 450kts
24-May-18 08:59 35.438932 -97.422111 190 41143ft 450kts
24-May-18 09:00 35.438932 -97.422111 190 41143ft 450kts
24-May-18 09:01 35.438932 -97.422111 190 41143ft 450kts
24-May-18 09:02 35.438932 -97.422111 190 41143ft 450kts
24-May-18 09:03 35.438932 -97.422111 190 41143ft 450kts
24-May-18 09:04 35.438932 -97.422111 190 41143ft 450kts
24-May-18 09:05 35.438932 -97.422111 190 41143ft 450kts
24-May-18 09:06 35.438932 -97.422111 190 41143ft 450kts
24-May-18 09:07 35.438932 -97.422111 190 41143ft 450kts
24-May-18 09:08 35.438932 -97.422111 190 41143ft 450kts
24-May-18 09:09 35.438932 -97.422111 190 41143ft 450kts
24-May-18 09:10 35.438932 -97.422111 190 41143ft 450kts
24-May-18 09:11 35.438932 -97.422111 190 41143ft 450kts
24-May-18 09:12 35.438932 -97.422111 190 41143ft 450kts
24-May-18 09:13 35.438932 -97.422111 190 41143ft 450kts
24-May-18 09:14 35.438932 -97.422111 190 41143ft 450kts
24-May-18 09:15 35.438932 -97.422111 190 41143ft 450kts
24-May-18 09:16 35.438932 -97.422111 190 41143ft 450kts
24-May-18 09:17 35.438932 -97.422111 190 41143ft 450kts
24-May-18 09:18 35.438932 -97.422111 190 41143ft 450kts
24-May-18 09:19 35.438932 -97.422111 190 41143ft 450kts
24-May-18 09:20 35.438932 -97.422111 190 41143ft 450kts
24-May-18 09:21 35.438932 -97.422111 190 41143ft 450kts
24-May-18 09:22 35.438932 -97.422111 190 41143ft 450kts
24-May-18 09:23 35.438932 -97.422111 190 41143ft 450kts
24-May-18 09:24 35.438932 -97.422111 190 41143ft 450kts
24-May-18 09:25 35.438932 -97.422111 190 41143ft 450kts
24-May-18 09:26 35.438932 -97.422111 190 41143ft 450kts
24-May-18 09:27 35.438932 -97.422111 190 41143ft 450kts
24-May-18 09:28 35.438932 -97.422111 190 41143ft 450kts
24-May-18 09:29 35.438932 -97.422111 190 41143ft 450kts
24-May-18 09:30 35.438932 -97.422111 190 41143ft 450kts
24-May-18 09:31 35.438932 -97.422111 190 41143ft 450kts
24-May-18 09:32 35.438932 -97.422111 190 41143ft 450kts
24-May-18 09:33 35.438932 -97.422111 190 41143ft 450kts
24-May-18 09:34 35.438932 -97.422111 190 41143ft 450kts
24-May-18 09:35 35.438932 -97.422111 190 41143ft 450kts
24-May-18 09:36 35.438932 -97.422111 190 41143ft 450kts
24-May-18 09:37 35.438932 -97.422111 190 41143ft 450kts
24-May-18 09:38 35.438932 -97.422111 190 41143ft 450kts
24-May-18 09:39 35.438932 -97.422111 190 41143ft 450kts
24-May-18 09:40 35.438932 -97.422111 190 41143ft 450kts
24-May-18 09:41 35.438932 -97.422111 190 41143ft 450kts
24-May-18 09:42 35.438932 -97.422111 190 41143ft 450kts
24-May-18 09:43 35.438932 -97.422111 190 41143ft 450kts
24-May-18 09:44 35.438932 -97.422111 190 41143ft 450kts
24-May-18 09:45 35.438932 -97.422111 190 41143ft 450kts
24-May-18 09:46 35.438932 -97.422111 190 41143ft 450kts
24-May-18 09:47 35.415374 -97.426746 190 41152ft 451kts
24-May-18 09:48 35.291175 -97.451058 190 40511ft 456kts
24-May-18 09:49 35.161602 -97.476364 189 37542ft 483kts
24-May-18 09:50 35.026687 -97.502330 187 34549ft 497kts
24-May-18 09:51 34.887787 -97.514784 183 31619ft 503kts
24-May-18 09:52 34.749053 -97.526826 184 29491ft 489kts
24-May-18 09:53 34.615609 -97.538220 184 27745ft 479kts
24-May-18 09:54 34.482442 -97.549565 184 25951ft 482kts
24-May-18 09:55 34.347826 -97.560987 184 24233ft 485kts
24-May-18 09:56 34.213458 -97.572340 184 23762ft 484kts
24-May-18 09:57 34.079000 -97.583685 184 23431ft 482kts
24-May-18 09:58 33.946553 -97.594793 184 22942ft 460kts
24-May-18 09:59 33.827987 -97.604724 184 22413ft 403kts
24-May-18 10:00 33.717171 -97.614002 184 19858ft 392kts
24-May-18 10:01 33.610123 -97.622934 185 17255ft 380kts
24-May-18 10:02 33.506805 -97.631523 184 14984ft 361kts
24-May-18 10:03 33.415258 -97.639091 185 14546ft 305kts
24-May-18 10:04 33.346602 -97.599571 110 12962ft 308kts
24-May-18 10:05 33.304693 -97.512745 126 11592ft 298kts
24-May-18 10:06 33.267288 -97.434940 88 11379ft 253kts
24-May-18 10:07 33.266509 -97.355477 93 10041ft 238kts
24-May-18 10:08 33.262551 -97.278117 94 8540ft 230kts
24-May-18 10:09 33.249182 -97.205503 112 7079ft 221kts
24-May-18 10:10 33.226906 -97.137731 113 5627ft 216kts
24-May-18 10:11 33.204756 -97.071380 113 4316ft 209kts
24-May-18 10:12 33.159361 -97.051020 185 4153ft 192kts
24-May-18 10:13 33.114638 -97.053608 180 4145ft 194kts
24-May-18 10:14 33.059918 -97.053756 180 3438ft 197kts
24-May-18 10:15 33.009621 -97.054057 180 2437ft 159kts
24-May-18 10:16 32.968601 -97.054301 178 1680ft 142kts
24-May-18 10:17 32.928977 -97.054493 180 923ft 148kts
24-May-18 10:18 32.893940 -97.054683 180 621ft 63kts
24-May-18 10:19 32.886088 -97.051308 88 621ft 15kts
24-May-18 10:20 32.888753 -97.047631 1 621ft 32kts
24-May-18 10:21 32.894271 -97.044822 93 621ft 16kts
24-May-18 10:22 32.894899 -97.043956 3 621ft 0kts

Navigation Log

Ident Type
Flight plan parsing failed, navigation log unavailable